sensor_id;sensor_type;location;lat;lon;timestamp;P1;durP1;ratioP1;P2;durP2;ratioP2
22711;SDS011;11523;50.390;8.072;2022-12-10T03:05:09;16.25;;;12.20;;
22711;SDS011;11523;50.390;8.072;2022-12-10T03:07:49;17.42;;;12.23;;
22711;SDS011;11523;50.390;8.072;2022-12-10T03:12:43;15.38;;;11.05;;
22711;SDS011;11523;50.390;8.072;2022-12-10T03:15:12;14.05;;;10.43;;
22711;SDS011;11523;50.390;8.072;2022-12-10T03:17:38;18.33;;;12.48;;
22711;SDS011;11523;50.390;8.072;2022-12-10T03:20:08;17.55;;;12.10;;
22711;SDS011;11523;50.390;8.072;2022-12-10T03:22:36;17.02;;;12.20;;
22711;SDS011;11523;50.390;8.072;2022-12-10T03:25:03;18.02;;;11.63;;
22711;SDS011;11523;50.390;8.072;2022-12-10T03:27:29;17.55;;;12.63;;
22711;SDS011;11523;50.390;8.072;2022-12-10T03:29:56;16.17;;;11.82;;
22711;SDS011;11523;50.390;8.072;2022-12-10T03:32:25;17.98;;;12.13;;
22711;SDS011;11523;50.390;8.072;2022-12-10T03:34:53;15.73;;;11.93;;
22711;SDS011;11523;50.390;8.072;2022-12-10T03:37:20;18.90;;;13.13;;
22711;SDS011;11523;50.390;8.072;2022-12-10T03:39:46;17.52;;;12.50;;
22711;SDS011;11523;50.390;8.072;2022-12-10T03:42:12;18.48;;;12.48;;
22711;SDS011;11523;50.390;8.072;2022-12-10T03:44:38;16.80;;;12.68;;
22711;SDS011;11523;50.390;8.072;2022-12-10T03:47:08;16.75;;;12.27;;
22711;SDS011;11523;50.390;8.072;2022-12-10T03:49:35;18.13;;;13.05;;
22711;SDS011;11523;50.390;8.072;2022-12-10T03:52:01;19.42;;;13.77;;
22711;SDS011;11523;50.390;8.072;2022-12-10T03:54:27;19.33;;;13.60;;
22711;SDS011;11523;50.390;8.072;2022-12-10T03:56:53;19.30;;;13.77;;
22711;SDS011;11523;50.390;8.072;2022-12-10T03:59:19;19.45;;;13.48;;
22711;SDS011;11523;50.390;8.072;2022-12-10T04:01:45;17.73;;;13.18;;
22711;SDS011;11523;50.390;8.072;2022-12-10T04:55:41;15.55;;;11.50;;
22711;SDS011;11523;50.390;8.072;2022-12-10T04:58:13;15.55;;;11.25;;
22711;SDS011;11523;50.390;8.072;2022-12-10T05:00:39;13.98;;;10.85;;
22711;SDS011;11523;50.390;8.072;2022-12-10T05:03:05;17.25;;;10.70;;
22711;SDS011;11523;50.390;8.072;2022-12-10T05:05:31;14.80;;;10.13;;
22711;SDS011;11523;50.390;8.072;2022-12-10T05:07:58;13.63;;;10.48;;
22711;SDS011;11523;50.390;8.072;2022-12-10T05:10:24;14.52;;;10.80;;
22711;SDS011;11523;50.390;8.072;2022-12-10T05:12:51;14.43;;;10.25;;
22711;SDS011;11523;50.390;8.072;2022-12-10T05:15:17;15.05;;;10.20;;
22711;SDS011;11523;50.390;8.072;2022-12-10T05:17:43;11.75;;;9.80;;
22711;SDS011;11523;50.390;8.072;2022-12-10T05:20:09;13.45;;;10.02;;
22711;SDS011;11523;50.390;8.072;2022-12-10T05:22:35;13.70;;;10.10;;
22711;SDS011;11523;50.390;8.072;2022-12-10T05:25:20;13.10;;;10.18;;
22711;SDS011;11523;50.390;8.072;2022-12-10T05:27:46;13.05;;;10.13;;
22711;SDS011;11523;50.390;8.072;2022-12-10T05:30:12;12.60;;;9.68;;
22711;SDS011;11523;50.390;8.072;2022-12-10T05:32:38;14.50;;;9.50;;
22711;SDS011;11523;50.390;8.072;2022-12-10T05:35:04;14.27;;;10.57;;
22711;SDS011;11523;50.390;8.072;2022-12-10T05:37:30;13.05;;;10.00;;
22711;SDS011;11523;50.390;8.072;2022-12-10T05:39:56;14.38;;;10.77;;
22711;SDS011;11523;50.390;8.072;2022-12-10T05:42:22;15.98;;;10.88;;
22711;SDS011;11523;50.390;8.072;2022-12-10T05:44:48;16.77;;;11.50;;
22711;SDS011;11523;50.390;8.072;2022-12-10T05:47:14;15.25;;;10.77;;
22711;SDS011;11523;50.390;8.072;2022-12-10T05:49:40;15.20;;;10.80;;
22711;SDS011;11523;50.390;8.072;2022-12-10T05:52:06;15.55;;;11.35;;
22711;SDS011;11523;50.390;8.072;2022-12-10T05:54:33;19.20;;;11.70;;
22711;SDS011;11523;50.390;8.072;2022-12-10T05:56:59;18.60;;;12.13;;
22711;SDS011;11523;50.390;8.072;2022-12-10T05:59:25;15.70;;;11.77;;
22711;SDS011;11523;50.390;8.072;2022-12-10T06:01:51;19.23;;;12.68;;
22711;SDS011;11523;50.390;8.072;2022-12-10T06:04:17;16.70;;;11.63;;
22711;SDS011;11523;50.390;8.072;2022-12-10T06:06:43;16.90;;;11.98;;
22711;SDS011;11523;50.390;8.072;2022-12-10T06:09:11;16.80;;;12.52;;
22711;SDS011;11523;50.390;8.072;2022-12-10T06:11:37;16.60;;;12.18;;
22711;SDS011;11523;50.390;8.072;2022-12-10T06:14:03;15.73;;;11.48;;
22711;SDS011;11523;50.390;8.072;2022-12-10T06:16:29;17.40;;;12.35;;
22711;SDS011;11523;50.390;8.072;2022-12-10T06:18:55;15.88;;;11.68;;
22711;SDS011;11523;50.390;8.072;2022-12-10T06:21:22;15.55;;;10.02;;
22711;SDS011;11523;50.390;8.072;2022-12-10T06:23:48;15.75;;;11.68;;
22711;SDS011;11523;50.390;8.072;2022-12-10T06:26:17;16.23;;;11.35;;
22711;SDS011;11523;50.390;8.072;2022-12-10T06:28:44;16.13;;;11.95;;
22711;SDS011;11523;50.390;8.072;2022-12-10T06:31:10;15.75;;;11.98;;
22711;SDS011;11523;50.390;8.072;2022-12-10T06:33:36;18.52;;;12.48;;
22711;SDS011;11523;50.390;8.072;2022-12-10T06:36:03;15.43;;;11.25;;
22711;SDS011;11523;50.390;8.072;2022-12-10T06:38:29;17.45;;;12.05;;
22711;SDS011;11523;50.390;8.072;2022-12-10T06:40:55;16.35;;;12.00;;
22711;SDS011;11523;50.390;8.072;2022-12-10T06:43:21;19.45;;;12.90;;
22711;SDS011;11523;50.390;8.072;2022-12-10T06:45:47;15.88;;;11.40;;
22711;SDS011;11523;50.390;8.072;2022-12-10T06:48:13;16.17;;;12.07;;
22711;SDS011;11523;50.390;8.072;2022-12-10T06:50:39;16.60;;;11.95;;
22711;SDS011;11523;50.390;8.072;2022-12-10T06:53:06;17.73;;;12.48;;
22711;SDS011;11523;50.390;8.072;2022-12-10T06:55:32;17.33;;;12.20;;
22711;SDS011;11523;50.390;8.072;2022-12-10T06:57:58;17.63;;;11.88;;
22711;SDS011;11523;50.390;8.072;2022-12-10T07:00:24;17.25;;;11.52;;
22711;SDS011;11523;50.390;8.072;2022-12-10T07:02:50;18.20;;;12.25;;
22711;SDS011;11523;50.390;8.072;2022-12-10T07:05:16;17.88;;;12.50;;
22711;SDS011;11523;50.390;8.072;2022-12-10T07:07:42;19.20;;;13.75;;
22711;SDS011;11523;50.390;8.072;2022-12-10T07:10:08;18.38;;;12.77;;
22711;SDS011;11523;50.390;8.072;2022-12-10T07:12:34;20.45;;;12.45;;
22711;SDS011;11523;50.390;8.072;2022-12-10T07:15:00;17.17;;;12.80;;
22711;SDS011;11523;50.390;8.072;2022-12-10T07:17:26;18.77;;;11.98;;
22711;SDS011;11523;50.390;8.072;2022-12-10T07:19:53;18.73;;;12.10;;
22711;SDS011;11523;50.390;8.072;2022-12-10T07:22:19;19.70;;;12.88;;
22711;SDS011;11523;50.390;8.072;2022-12-10T07:24:44;18.02;;;12.70;;
22711;SDS011;11523;50.390;8.072;2022-12-10T07:27:10;18.13;;;12.45;;
22711;SDS011;11523;50.390;8.072;2022-12-10T07:29:36;19.92;;;13.55;;
22711;SDS011;11523;50.390;8.072;2022-12-10T07:32:02;18.70;;;12.70;;
22711;SDS011;11523;50.390;8.072;2022-12-10T07:34:28;24.05;;;13.73;;
22711;SDS011;11523;50.390;8.072;2022-12-10T07:36:54;19.75;;;13.55;;
22711;SDS011;11523;50.390;8.072;2022-12-10T07:39:20;19.95;;;13.93;;
22711;SDS011;11523;50.390;8.072;2022-12-10T07:41:47;19.65;;;13.32;;
22711;SDS011;11523;50.390;8.072;2022-12-10T07:44:14;19.55;;;13.30;;
22711;SDS011;11523;50.390;8.072;2022-12-10T07:46:41;20.85;;;13.98;;
22711;SDS011;11523;50.390;8.072;2022-12-10T07:49:07;21.25;;;14.27;;
22711;SDS011;11523;50.390;8.072;2022-12-10T07:51:33;18.85;;;13.07;;
22711;SDS011;11523;50.390;8.072;2022-12-10T07:53:59;21.10;;;13.82;;
22711;SDS011;11523;50.390;8.072;2022-12-10T07:56:25;20.92;;;14.05;;
22711;SDS011;11523;50.390;8.072;2022-12-10T07:58:51;20.23;;;13.57;;
22711;SDS011;11523;50.390;8.072;2022-12-10T08:01:19;19.65;;;13.63;;
22711;SDS011;11523;50.390;8.072;2022-12-10T08:03:47;18.30;;;13.15;;
22711;SDS011;11523;50.390;8.072;2022-12-10T08:06:14;20.52;;;13.75;;
22711;SDS011;11523;50.390;8.072;2022-12-10T08:08:41;21.17;;;14.32;;
22711;SDS011;11523;50.390;8.072;2022-12-10T08:11:07;24.45;;;14.48;;
22711;SDS011;11523;50.390;8.072;2022-12-10T08:13:34;20.15;;;13.85;;
22711;SDS011;11523;50.390;8.072;2022-12-10T08:16:03;20.35;;;13.48;;
22711;SDS011;11523;50.390;8.072;2022-12-10T08:18:30;21.48;;;14.27;;
22711;SDS011;11523;50.390;8.072;2022-12-10T08:20:56;26.23;;;16.02;;
22711;SDS011;11523;50.390;8.072;2022-12-10T08:23:22;21.38;;;14.07;;
22711;SDS011;11523;50.390;8.072;2022-12-10T08:25:48;22.85;;;14.75;;
22711;SDS011;11523;50.390;8.072;2022-12-10T08:28:14;21.65;;;14.18;;
22711;SDS011;11523;50.390;8.072;2022-12-10T08:30:44;22.65;;;14.20;;
22711;SDS011;11523;50.390;8.072;2022-12-10T08:33:10;23.58;;;15.60;;
22711;SDS011;11523;50.390;8.072;2022-12-10T08:35:36;23.45;;;15.75;;
22711;SDS011;11523;50.390;8.072;2022-12-10T08:38:02;24.40;;;15.50;;
22711;SDS011;11523;50.390;8.072;2022-12-10T08:40:28;22.10;;;14.35;;
22711;SDS011;11523;50.390;8.072;2022-12-10T08:42:54;22.73;;;14.70;;
22711;SDS011;11523;50.390;8.072;2022-12-10T08:45:20;25.98;;;16.63;;
22711;SDS011;11523;50.390;8.072;2022-12-10T08:47:46;23.48;;;15.50;;
22711;SDS011;11523;50.390;8.072;2022-12-10T08:50:12;21.80;;;15.07;;
22711;SDS011;11523;50.390;8.072;2022-12-10T08:52:38;21.95;;;14.70;;
22711;SDS011;11523;50.390;8.072;2022-12-10T08:55:04;22.92;;;15.48;;
22711;SDS011;11523;50.390;8.072;2022-12-10T08:57:30;24.48;;;16.38;;
22711;SDS011;11523;50.390;8.072;2022-12-10T08:59:56;23.98;;;15.70;;
22711;SDS011;11523;50.390;8.072;2022-12-10T09:02:22;23.20;;;15.65;;
22711;SDS011;11523;50.390;8.072;2022-12-10T09:04:49;24.98;;;16.35;;
22711;SDS011;11523;50.390;8.072;2022-12-10T09:07:15;23.55;;;14.55;;
22711;SDS011;11523;50.390;8.072;2022-12-10T09:09:41;23.02;;;14.27;;
22711;SDS011;11523;50.390;8.072;2022-12-10T09:12:07;22.42;;;14.77;;
22711;SDS011;11523;50.390;8.072;2022-12-10T09:14:33;22.83;;;14.75;;
22711;SDS011;11523;50.390;8.072;2022-12-10T09:16:59;21.30;;;13.85;;
22711;SDS011;11523;50.390;8.072;2022-12-10T09:19:24;22.20;;;15.18;;
22711;SDS011;11523;50.390;8.072;2022-12-10T09:21:50;22.55;;;15.20;;
22711;SDS011;11523;50.390;8.072;2022-12-10T09:24:16;19.90;;;14.38;;
22711;SDS011;11523;50.390;8.072;2022-12-10T09:26:42;23.42;;;14.95;;
22711;SDS011;11523;50.390;8.072;2022-12-10T09:29:08;22.15;;;14.27;;
22711;SDS011;11523;50.390;8.072;2022-12-10T09:31:34;23.00;;;15.18;;
22711;SDS011;11523;50.390;8.072;2022-12-10T09:34:00;22.10;;;14.25;;
22711;SDS011;11523;50.390;8.072;2022-12-10T09:36:26;25.50;;;15.95;;
22711;SDS011;11523;50.390;8.072;2022-12-10T09:38:52;23.17;;;15.73;;
22711;SDS011;11523;50.390;8.072;2022-12-10T09:41:30;23.63;;;15.65;;
22711;SDS011;11523;50.390;8.072;2022-12-10T09:44:05;22.33;;;14.75;;
22711;SDS011;11523;50.390;8.072;2022-12-10T09:46:52;25.30;;;16.05;;
22711;SDS011;11523;50.390;8.072;2022-12-10T09:51:50;21.92;;;14.57;;
22711;SDS011;11523;50.390;8.072;2022-12-10T09:54:24;23.63;;;14.93;;
22711;SDS011;11523;50.390;8.072;2022-12-10T09:56:57;23.15;;;15.18;;
22711;SDS011;11523;50.390;8.072;2022-12-10T09:59:31;23.35;;;15.25;;
22711;SDS011;11523;50.390;8.072;2022-12-10T10:02:16;22.10;;;14.70;;
22711;SDS011;11523;50.390;8.072;2022-12-10T10:04:44;23.52;;;15.15;;
22711;SDS011;11523;50.390;8.072;2022-12-10T10:07:12;21.25;;;13.88;;
22711;SDS011;11523;50.390;8.072;2022-12-10T10:09:40;26.85;;;17.55;;
22711;SDS011;11523;50.390;8.072;2022-12-10T10:12:10;23.50;;;15.55;;
22711;SDS011;11523;50.390;8.072;2022-12-10T10:14:38;22.83;;;13.93;;
22711;SDS011;11523;50.390;8.072;2022-12-10T10:17:08;26.98;;;15.15;;
22711;SDS011;11523;50.390;8.072;2022-12-10T10:19:35;23.25;;;14.98;;
22711;SDS011;11523;50.390;8.072;2022-12-10T10:22:03;20.48;;;12.60;;
22711;SDS011;11523;50.390;8.072;2022-12-10T10:24:34;19.58;;;12.52;;
22711;SDS011;11523;50.390;8.072;2022-12-10T10:27:17;23.52;;;14.18;;
22711;SDS011;11523;50.390;8.072;2022-12-10T10:29:44;22.58;;;14.27;;
22711;SDS011;11523;50.390;8.072;2022-12-10T10:32:18;20.98;;;14.32;;
22711;SDS011;11523;50.390;8.072;2022-12-10T10:34:46;24.00;;;14.93;;
22711;SDS011;11523;50.390;8.072;2022-12-10T10:37:20;24.05;;;16.15;;
22711;SDS011;11523;50.390;8.072;2022-12-10T10:39:48;23.77;;;15.57;;
22711;SDS011;11523;50.390;8.072;2022-12-10T10:42:19;19.50;;;14.27;;
22711;SDS011;11523;50.390;8.072;2022-12-10T10:44:55;23.90;;;16.00;;
22711;SDS011;11523;50.390;8.072;2022-12-10T10:47:31;24.80;;;15.63;;
22711;SDS011;11523;50.390;8.072;2022-12-10T10:49:58;24.45;;;16.50;;
22711;SDS011;11523;50.390;8.072;2022-12-10T10:52:27;23.63;;;16.80;;
22711;SDS011;11523;50.390;8.072;2022-12-10T10:54:54;23.98;;;15.80;;
22711;SDS011;11523;50.390;8.072;2022-12-10T10:57:32;23.38;;;15.70;;
22711;SDS011;11523;50.390;8.072;2022-12-10T11:00:04;23.80;;;15.30;;
22711;SDS011;11523;50.390;8.072;2022-12-10T11:02:38;22.98;;;15.50;;
22711;SDS011;11523;50.390;8.072;2022-12-10T11:05:07;24.98;;;15.25;;
22711;SDS011;11523;50.390;8.072;2022-12-10T11:07:34;26.02;;;16.35;;
22711;SDS011;11523;50.390;8.072;2022-12-10T11:10:02;25.73;;;17.40;;
22711;SDS011;11523;50.390;8.072;2022-12-10T11:12:29;24.77;;;17.08;;
22711;SDS011;11523;50.390;8.072;2022-12-10T11:14:58;23.20;;;15.27;;
22711;SDS011;11523;50.390;8.072;2022-12-10T11:17:25;24.58;;;15.18;;
22711;SDS011;11523;50.390;8.072;2022-12-10T11:19:56;22.00;;;15.90;;
22711;SDS011;11523;50.390;8.072;2022-12-10T11:22:24;25.20;;;15.68;;
22711;SDS011;11523;50.390;8.072;2022-12-10T11:24:50;24.17;;;16.65;;
22711;SDS011;11523;50.390;8.072;2022-12-10T11:27:30;25.88;;;15.40;;
22711;SDS011;11523;50.390;8.072;2022-12-10T11:30:01;23.48;;;16.25;;
22711;SDS011;11523;50.390;8.072;2022-12-10T11:32:30;22.65;;;14.80;;
22711;SDS011;11523;50.390;8.072;2022-12-10T11:37:33;19.10;;;12.93;;
22711;SDS011;11523;50.390;8.072;2022-12-10T11:42:38;21.92;;;13.60;;
22711;SDS011;11523;50.390;8.072;2022-12-10T11:48:01;21.65;;;15.40;;
22711;SDS011;11523;50.390;8.072;2022-12-10T11:50:34;18.85;;;14.00;;
22711;SDS011;11523;50.390;8.072;2022-12-10T11:53:12;21.58;;;14.65;;
22711;SDS011;11523;50.390;8.072;2022-12-10T11:55:43;18.88;;;12.15;;
22711;SDS011;11523;50.390;8.072;2022-12-10T12:01:02;17.38;;;11.10;;
22711;SDS011;11523;50.390;8.072;2022-12-10T12:08:43;17.58;;;12.27;;
22711;SDS011;11523;50.390;8.072;2022-12-10T12:14:12;20.45;;;13.20;;
22711;SDS011;11523;50.390;8.072;2022-12-10T12:19:14;19.85;;;12.63;;
22711;SDS011;11523;50.390;8.072;2022-12-10T12:21:42;20.35;;;14.45;;
22711;SDS011;11523;50.390;8.072;2022-12-10T12:26:38;22.60;;;15.30;;
22711;SDS011;11523;50.390;8.072;2022-12-10T12:29:19;21.23;;;14.32;;
22711;SDS011;11523;50.390;8.072;2022-12-10T12:31:49;20.20;;;13.77;;
22711;SDS011;11523;50.390;8.072;2022-12-10T12:34:34;20.92;;;12.75;;
22711;SDS011;11523;50.390;8.072;2022-12-10T12:37:03;21.02;;;14.25;;
22711;SDS011;11523;50.390;8.072;2022-12-10T12:39:32;19.65;;;14.57;;
22711;SDS011;11523;50.390;8.072;2022-12-10T12:42:01;15.68;;;9.85;;
22711;SDS011;11523;50.390;8.072;2022-12-10T12:46:55;19.02;;;13.68;;
22711;SDS011;11523;50.390;8.072;2022-12-10T12:49:39;18.65;;;14.30;;
22711;SDS011;11523;50.390;8.072;2022-12-10T13:00:05;20.63;;;13.65;;
22711;SDS011;11523;50.390;8.072;2022-12-10T13:05:01;17.95;;;12.75;;
22711;SDS011;11523;50.390;8.072;2022-12-10T13:07:28;17.05;;;11.50;;
22711;SDS011;11523;50.390;8.072;2022-12-10T13:12:49;17.10;;;12.55;;
22711;SDS011;11523;50.390;8.072;2022-12-10T13:18:00;14.85;;;11.05;;
22711;SDS011;11523;50.390;8.072;2022-12-10T13:23:00;16.55;;;12.10;;
22711;SDS011;11523;50.390;8.072;2022-12-10T13:28:20;17.35;;;12.07;;
22711;SDS011;11523;50.390;8.072;2022-12-10T13:33:48;15.88;;;11.70;;
22711;SDS011;11523;50.390;8.072;2022-12-10T13:36:19;17.90;;;11.95;;
22711;SDS011;11523;50.390;8.072;2022-12-10T13:41:33;18.92;;;12.85;;
22711;SDS011;11523;50.390;8.072;2022-12-10T13:44:32;17.63;;;11.48;;
22711;SDS011;11523;50.390;8.072;2022-12-10T13:49:28;17.05;;;12.43;;
22711;SDS011;11523;50.390;8.072;2022-12-10T13:52:04;18.02;;;12.65;;
22711;SDS011;11523;50.390;8.072;2022-12-10T13:57:20;13.52;;;8.95;;
22711;SDS011;11523;50.390;8.072;2022-12-10T14:07:56;17.13;;;12.48;;
22711;SDS011;11523;50.390;8.072;2022-12-10T14:10:26;19.60;;;14.48;;
22711;SDS011;11523;50.390;8.072;2022-12-10T14:12:53;21.13;;;15.18;;
22711;SDS011;11523;50.390;8.072;2022-12-10T14:15:20;23.33;;;15.20;;
22711;SDS011;11523;50.390;8.072;2022-12-10T14:17:48;19.98;;;14.88;;
22711;SDS011;11523;50.390;8.072;2022-12-10T14:20:16;23.00;;;16.17;;
22711;SDS011;11523;50.390;8.072;2022-12-10T14:22:44;22.38;;;15.57;;
22711;SDS011;11523;50.390;8.072;2022-12-10T14:25:12;24.38;;;15.80;;
22711;SDS011;11523;50.390;8.072;2022-12-10T14:27:38;20.15;;;14.32;;
22711;SDS011;11523;50.390;8.072;2022-12-10T14:30:05;20.23;;;14.63;;
22711;SDS011;11523;50.390;8.072;2022-12-10T14:32:35;21.10;;;14.70;;
22711;SDS011;11523;50.390;8.072;2022-12-10T14:35:03;20.63;;;13.63;;
22711;SDS011;11523;50.390;8.072;2022-12-10T14:37:30;21.52;;;14.88;;
22711;SDS011;11523;50.390;8.072;2022-12-10T14:39:57;21.42;;;14.10;;
22711;SDS011;11523;50.390;8.072;2022-12-10T14:42:23;19.38;;;14.15;;
22711;SDS011;11523;50.390;8.072;2022-12-10T14:44:51;23.13;;;15.63;;
22711;SDS011;11523;50.390;8.072;2022-12-10T14:47:20;20.63;;;13.27;;
22711;SDS011;11523;50.390;8.072;2022-12-10T14:49:47;20.30;;;14.45;;
22711;SDS011;11523;50.390;8.072;2022-12-10T14:54:43;18.73;;;13.52;;
22711;SDS011;11523;50.390;8.072;2022-12-10T14:57:13;23.50;;;16.60;;
22711;SDS011;11523;50.390;8.072;2022-12-10T14:59:40;22.27;;;15.27;;
22711;SDS011;11523;50.390;8.072;2022-12-10T15:02:19;21.25;;;13.98;;
22711;SDS011;11523;50.390;8.072;2022-12-10T15:04:47;24.17;;;15.30;;
22711;SDS011;11523;50.390;8.072;2022-12-10T15:07:14;24.00;;;15.93;;
22711;SDS011;11523;50.390;8.072;2022-12-10T15:09:41;23.10;;;16.23;;
22711;SDS011;11523;50.390;8.072;2022-12-10T15:12:15;23.83;;;16.20;;
22711;SDS011;11523;50.390;8.072;2022-12-10T15:14:44;23.42;;;16.08;;
22711;SDS011;11523;50.390;8.072;2022-12-10T15:19:55;23.65;;;15.95;;
22711;SDS011;11523;50.390;8.072;2022-12-10T15:22:21;25.23;;;16.63;;
22711;SDS011;11523;50.390;8.072;2022-12-10T15:24:47;24.05;;;15.60;;
22711;SDS011;11523;50.390;8.072;2022-12-10T15:27:18;24.35;;;16.42;;
22711;SDS011;11523;50.390;8.072;2022-12-10T15:29:44;27.75;;;18.50;;
22711;SDS011;11523;50.390;8.072;2022-12-10T15:32:12;25.83;;;16.23;;
22711;SDS011;11523;50.390;8.072;2022-12-10T15:34:41;25.30;;;16.92;;
22711;SDS011;11523;50.390;8.072;2022-12-10T15:37:14;24.52;;;16.20;;
22711;SDS011;11523;50.390;8.072;2022-12-10T15:39:45;24.63;;;17.50;;
22711;SDS011;11523;50.390;8.072;2022-12-10T15:42:27;25.23;;;17.48;;
22711;SDS011;11523;50.390;8.072;2022-12-10T15:44:55;23.75;;;16.05;;
22711;SDS011;11523;50.390;8.072;2022-12-10T15:47:25;27.73;;;17.50;;
22711;SDS011;11523;50.390;8.072;2022-12-10T15:49:52;25.75;;;16.92;;
22711;SDS011;11523;50.390;8.072;2022-12-10T15:52:19;21.92;;;15.68;;
22711;SDS011;11523;50.390;8.072;2022-12-10T15:54:46;29.33;;;16.40;;
22711;SDS011;11523;50.390;8.072;2022-12-10T15:57:34;23.90;;;16.15;;
22711;SDS011;11523;50.390;8.072;2022-12-10T15:59:59;23.45;;;15.77;;
22711;SDS011;11523;50.390;8.072;2022-12-10T16:04:54;25.30;;;16.90;;
22711;SDS011;11523;50.390;8.072;2022-12-10T16:07:20;26.85;;;17.30;;
22711;SDS011;11523;50.390;8.072;2022-12-10T16:09:46;26.58;;;16.30;;
22711;SDS011;11523;50.390;8.072;2022-12-10T16:12:13;26.33;;;15.90;;
22711;SDS011;11523;50.390;8.072;2022-12-10T16:14:49;22.45;;;16.08;;
22711;SDS011;11523;50.390;8.072;2022-12-10T16:17:16;26.77;;;17.23;;
22711;SDS011;11523;50.390;8.072;2022-12-10T16:19:42;27.58;;;17.55;;
22711;SDS011;11523;50.390;8.072;2022-12-10T16:22:08;26.98;;;17.13;;
22711;SDS011;11523;50.390;8.072;2022-12-10T16:24:34;26.88;;;17.58;;
22711;SDS011;11523;50.390;8.072;2022-12-10T16:27:00;27.05;;;17.60;;
22711;SDS011;11523;50.390;8.072;2022-12-10T16:29:26;26.20;;;17.63;;
22711;SDS011;11523;50.390;8.072;2022-12-10T16:31:52;29.73;;;18.50;;
22711;SDS011;11523;50.390;8.072;2022-12-10T16:34:25;28.00;;;19.13;;
22711;SDS011;11523;50.390;8.072;2022-12-10T16:36:51;26.75;;;17.17;;
22711;SDS011;11523;50.390;8.072;2022-12-10T16:39:17;26.90;;;15.88;;
22711;SDS011;11523;50.390;8.072;2022-12-10T16:41:42;25.67;;;17.42;;
22711;SDS011;11523;50.390;8.072;2022-12-10T16:44:09;27.80;;;18.42;;
22711;SDS011;11523;50.390;8.072;2022-12-10T16:46:35;28.63;;;18.58;;
22711;SDS011;11523;50.390;8.072;2022-12-10T16:49:01;27.90;;;17.83;;
22711;SDS011;11523;50.390;8.072;2022-12-10T16:51:27;27.77;;;16.85;;
22711;SDS011;11523;50.390;8.072;2022-12-10T16:54:00;29.23;;;17.85;;
22711;SDS011;11523;50.390;8.072;2022-12-10T16:56:26;27.85;;;18.58;;
22711;SDS011;11523;50.390;8.072;2022-12-10T16:58:53;31.58;;;18.80;;
22711;SDS011;11523;50.390;8.072;2022-12-10T17:01:26;28.08;;;17.88;;
22711;SDS011;11523;50.390;8.072;2022-12-10T17:06:19;24.08;;;16.30;;
22711;SDS011;11523;50.390;8.072;2022-12-10T17:08:45;26.48;;;16.27;;
22711;SDS011;11523;50.390;8.072;2022-12-10T17:13:59;26.40;;;17.77;;
22711;SDS011;11523;50.390;8.072;2022-12-10T17:16:25;27.85;;;18.70;;
22711;SDS011;11523;50.390;8.072;2022-12-10T17:18:51;30.73;;;18.92;;
22711;SDS011;11523;50.390;8.072;2022-12-10T17:21:17;27.25;;;17.33;;
22711;SDS011;11523;50.390;8.072;2022-12-10T17:23:43;27.88;;;18.02;;
22711;SDS011;11523;50.390;8.072;2022-12-10T17:26:20;24.98;;;17.27;;
22711;SDS011;11523;50.390;8.072;2022-12-10T17:28:47;29.45;;;17.48;;
22711;SDS011;11523;50.390;8.072;2022-12-10T17:31:13;29.25;;;18.40;;
22711;SDS011;11523;50.390;8.072;2022-12-10T17:33:39;27.77;;;18.33;;
22711;SDS011;11523;50.390;8.072;2022-12-10T17:36:07;26.27;;;18.13;;
22711;SDS011;11523;50.390;8.072;2022-12-10T17:38:35;26.77;;;17.83;;
22711;SDS011;11523;50.390;8.072;2022-12-10T17:41:00;29.08;;;17.65;;
22711;SDS011;11523;50.390;8.072;2022-12-10T17:43:27;26.63;;;18.33;;
22711;SDS011;11523;50.390;8.072;2022-12-10T17:45:53;28.50;;;18.52;;
22711;SDS011;11523;50.390;8.072;2022-12-10T17:48:20;27.30;;;17.67;;
22711;SDS011;11523;50.390;8.072;2022-12-10T17:50:46;29.13;;;19.08;;
22711;SDS011;11523;50.390;8.072;2022-12-10T17:53:14;28.23;;;18.88;;
22711;SDS011;11523;50.390;8.072;2022-12-10T17:55:42;28.92;;;20.00;;
22711;SDS011;11523;50.390;8.072;2022-12-10T17:58:09;29.75;;;19.52;;
22711;SDS011;11523;50.390;8.072;2022-12-10T18:00:35;28.45;;;18.48;;
22711;SDS011;11523;50.390;8.072;2022-12-10T18:03:02;28.23;;;15.88;;
22711;SDS011;11523;50.390;8.072;2022-12-10T18:05:27;27.13;;;18.25;;
22711;SDS011;11523;50.390;8.072;2022-12-10T18:07:54;25.67;;;17.25;;
22711;SDS011;11523;50.390;8.072;2022-12-10T18:10:24;24.58;;;16.98;;
22711;SDS011;11523;50.390;8.072;2022-12-10T18:12:51;25.38;;;17.58;;
22711;SDS011;11523;50.390;8.072;2022-12-10T18:15:21;26.88;;;17.00;;
22711;SDS011;11523;50.390;8.072;2022-12-10T18:17:47;25.50;;;16.40;;
22711;SDS011;11523;50.390;8.072;2022-12-10T18:20:19;27.63;;;18.08;;
22711;SDS011;11523;50.390;8.072;2022-12-10T18:22:46;22.53;;;14.93;;
22711;SDS011;11523;50.390;8.072;2022-12-10T18:25:12;28.10;;;17.50;;
22711;SDS011;11523;50.390;8.072;2022-12-10T18:27:38;23.02;;;16.80;;
22711;SDS011;11523;50.390;8.072;2022-12-10T18:30:04;30.95;;;18.05;;
22711;SDS011;11523;50.390;8.072;2022-12-10T18:32:30;29.67;;;18.95;;
22711;SDS011;11523;50.390;8.072;2022-12-10T18:34:56;28.60;;;18.05;;
22711;SDS011;11523;50.390;8.072;2022-12-10T18:37:22;30.67;;;18.95;;
22711;SDS011;11523;50.390;8.072;2022-12-10T18:39:48;28.23;;;19.00;;
22711;SDS011;11523;50.390;8.072;2022-12-10T18:42:14;27.20;;;18.10;;
22711;SDS011;11523;50.390;8.072;2022-12-10T18:44:42;31.15;;;19.27;;
22711;SDS011;11523;50.390;8.072;2022-12-10T18:47:09;32.28;;;19.13;;
22711;SDS011;11523;50.390;8.072;2022-12-10T18:49:36;30.73;;;20.15;;
22711;SDS011;11523;50.390;8.072;2022-12-10T18:52:03;29.27;;;18.73;;
22711;SDS011;11523;50.390;8.072;2022-12-10T18:54:29;34.28;;;18.70;;
22711;SDS011;11523;50.390;8.072;2022-12-10T18:56:55;29.63;;;18.73;;
22711;SDS011;11523;50.390;8.072;2022-12-10T18:59:21;30.67;;;18.30;;
22711;SDS011;11523;50.390;8.072;2022-12-10T19:01:47;30.15;;;19.08;;
22711;SDS011;11523;50.390;8.072;2022-12-10T19:04:13;27.70;;;17.02;;
22711;SDS011;11523;50.390;8.072;2022-12-10T19:06:39;32.45;;;18.48;;
22711;SDS011;11523;50.390;8.072;2022-12-10T19:09:08;31.05;;;18.88;;
22711;SDS011;11523;50.390;8.072;2022-12-10T19:11:37;31.08;;;19.77;;
22711;SDS011;11523;50.390;8.072;2022-12-10T19:14:03;31.58;;;19.38;;
22711;SDS011;11523;50.390;8.072;2022-12-10T19:16:30;30.33;;;19.08;;
22711;SDS011;11523;50.390;8.072;2022-12-10T19:18:55;26.88;;;17.50;;
22711;SDS011;11523;50.390;8.072;2022-12-10T19:21:25;31.17;;;19.17;;
22711;SDS011;11523;50.390;8.072;2022-12-10T19:23:51;29.65;;;18.23;;
22711;SDS011;11523;50.390;8.072;2022-12-10T19:26:28;33.00;;;18.40;;
22711;SDS011;11523;50.390;8.072;2022-12-10T19:28:56;31.67;;;18.63;;
22711;SDS011;11523;50.390;8.072;2022-12-10T19:31:22;30.45;;;19.85;;
22711;SDS011;11523;50.390;8.072;2022-12-10T19:33:48;31.08;;;19.23;;
22711;SDS011;11523;50.390;8.072;2022-12-10T19:36:15;28.98;;;18.33;;
22711;SDS011;11523;50.390;8.072;2022-12-10T19:38:42;34.40;;;20.25;;
22711;SDS011;11523;50.390;8.072;2022-12-10T19:41:08;31.98;;;20.33;;
22711;SDS011;11523;50.390;8.072;2022-12-10T19:43:34;32.97;;;18.23;;
22711;SDS011;11523;50.390;8.072;2022-12-10T19:46:00;31.63;;;19.55;;